^^
Station Historical Data
Daily Summary for March 28, 2017 Units:  English    Metric   Both
« Previous Day
Next Day »
Daily Weekly Monthly Yearly Custom
  High: Low: Average:
Temperature: 49.5 °F 46.8 °F 48.2 °F
Dew Point: 48.4 °F 45.1 °F 46.8 °F
Humidity: 96 % 93 % 95 %
Wind Speed: 6.1 mph 0.0 mph 0.8 mph
Wind Gust: 9.2 mph - -
Wind:- - NE
Pressure: 29.99 in 29.86 in -
Precipitation: 0.69 in    
Historical Graphs
 
 
Tabular Data for March 28, 2017
Time Temperature Dew Point Pressure Wind Wind Speed Wind Gust Humidity Rainfall Rate (Hourly) solar Conditions
00:04 48.6 °F 46.7 °F 29.99 in Calm     93 % 0.00 in 0.0 W/m2 RA
00:10 48.4 °F 46.5 °F 29.98 in Calm     93 % 0.00 in 0.0 W/m2 RA
00:15 48.4 °F 46.5 °F 29.98 in Calm     93 % 0.00 in 0.0 W/m2 CLR
00:20 48.4 °F 46.5 °F 29.98 in Calm     93 % 0.00 in 0.0 W/m2 CLR
00:25 48.3 °F 46.4 °F 29.98 in Calm     93 % 0.00 in 0.0 W/m2 CLR
00:30 48.1 °F 46.2 °F 29.98 in Calm     93 % 0.00 in 0.0 W/m2 CLR
00:35 48.1 °F 46.2 °F 29.98 in Calm     93 % 0.00 in 0.0 W/m2 CLR
00:40 48.3 °F 46.4 °F 29.98 in Calm     93 % 0.00 in 0.0 W/m2 CLR
00:45 47.9 °F 46.0 °F 29.97 in Calm     93 % 0.00 in 0.0 W/m2 CLR
00:50 47.9 °F 46.0 °F 29.97 in Calm     93 % 0.00 in 0.0 W/m2 CLR
00:55 48.1 °F 46.2 °F 29.97 in Calm     93 % 0.00 in 0.0 W/m2 CLR
01:00 47.9 °F 46.0 °F 29.97 in Calm     93 % 0.00 in 0.0 W/m2 CLR
01:05 48.0 °F 46.1 °F 29.97 in Calm     93 % 0.00 in 0.0 W/m2 CLR
01:10 47.9 °F 46.0 °F 29.97 in Calm     93 % 0.00 in 0.0 W/m2 CLR
01:15 48.0 °F 46.4 °F 29.97 in Calm     94 % 0.00 in 0.0 W/m2 CLR
01:20 48.0 °F 46.1 °F 29.97 in Calm     93 % 0.00 in 0.0 W/m2 CLR
01:25 48.1 °F 46.2 °F 29.96 in Calm     93 % 0.00 in 0.0 W/m2 CLR
01:30 48.0 °F 46.1 °F 29.97 in Calm     93 % 0.00 in 0.0 W/m2 CLR
01:35 48.0 °F 46.1 °F 29.96 in Calm     93 % 0.00 in 0.0 W/m2 CLR
01:40 47.9 °F 45.9 °F 29.97 in Calm     93 % 0.00 in 0.0 W/m2 CLR
01:45 48.0 °F 46.1 °F 29.96 in Calm     93 % 0.00 in 0.0 W/m2 CLR
01:50 47.7 °F 45.8 °F 29.96 in Calm     93 % 0.00 in 0.0 W/m2 CLR
01:55 47.4 °F 45.5 °F 29.96 in Calm     93 % 0.00 in 0.0 W/m2 CLR
02:00 47.1 °F 45.2 °F 29.95 in Calm     93 % 0.00 in 0.0 W/m2 CLR
02:05 47.2 °F 45.6 °F 29.95 in Calm     94 % 0.00 in 0.0 W/m2 CLR
02:10 47.3 °F 45.7 °F 29.95 in Calm     94 % 0.00 in 0.0 W/m2 CLR
02:11 47.3 °F 45.7 °F 29.95 in Calm     94 % 0.00 in 0.0 W/m2 CLR
02:16 47.4 °F 45.8 °F 29.95 in Calm     94 % 0.00 in 0.0 W/m2 CLR
02:21 47.4 °F 45.8 °F 29.95 in Calm     94 % 0.00 in 0.0 W/m2 CLR
02:26 47.2 °F 45.3 °F 29.94 in Calm     93 % 0.00 in 0.0 W/m2 CLR
02:31 47.2 °F 45.6 °F 29.94 in Calm     94 % 0.00 in 0.0 W/m2 CLR
02:36 47.0 °F 45.1 °F 29.94 in Calm     93 % 0.00 in 0.0 W/m2 CLR
02:41 47.0 °F 45.4 °F 29.94 in Calm     94 % 0.00 in 0.0 W/m2 CLR
02:46 47.0 °F 45.1 °F 29.94 in Calm     93 % 0.00 in 0.0 W/m2 CLR
02:51 47.0 °F 45.4 °F 29.94 in Calm     94 % 0.00 in 0.0 W/m2 CLR
02:56 47.1 °F 45.5 °F 29.94 in Calm     94 % 0.00 in 0.0 W/m2 CLR
03:01 46.8 °F 45.2 °F 29.94 in Calm     94 % 0.00 in 0.0 W/m2 CLR
03:06 47.1 °F 45.5 °F 29.94 in Calm     94 % 0.00 in 0.0 W/m2 CLR
03:11 47.2 °F 45.6 °F 29.93 in Calm     94 % 0.00 in 0.0 W/m2 CLR
03:17 47.3 °F 45.7 °F 29.94 in Calm   1.2 mph 94 % 0.00 in 0.0 W/m2 CLR
03:22 47.3 °F 45.7 °F 29.93 in Calm     94 % 0.00 in 0.0 W/m2 CLR
03:27 47.2 °F 45.6 °F 29.93 in Calm     94 % 0.00 in 0.0 W/m2 CLR
03:32 47.2 °F 45.6 °F 29.93 in Calm     94 % 0.00 in 0.0 W/m2 CLR
03:37 47.2 °F 45.6 °F 29.93 in Calm     94 % 0.00 in 0.0 W/m2 CLR
03:42 47.4 °F 45.8 °F 29.92 in Calm     94 % 0.00 in 0.0 W/m2 CLR
03:47 47.5 °F 45.9 °F 29.93 in Calm     94 % 0.00 in 0.0 W/m2 CLR
03:52 47.5 °F 45.9 °F 29.93 in Calm     94 % 0.00 in 0.0 W/m2 CLR
03:57 47.5 °F 45.9 °F 29.93 in Calm     94 % 0.00 in 0.0 W/m2 CLR
04:02 47.5 °F 45.9 °F 29.93 in Calm     94 % 0.00 in 0.0 W/m2 CLR
04:07 47.5 °F 45.9 °F 29.93 in NW 2.0 mph 3.5 mph 94 % 0.00 in 0.0 W/m2 CLR
04:12 47.4 °F 45.8 °F 29.92 in Calm     94 % 0.00 in 0.0 W/m2 CLR
04:17 47.4 °F 45.8 °F 29.92 in Calm     94 % 0.00 in 0.0 W/m2 CLR
04:22 47.5 °F 45.9 °F 29.92 in Calm     94 % 0.00 in 0.0 W/m2 CLR
04:27 47.5 °F 45.9 °F 29.92 in Calm     94 % 0.00 in 0.0 W/m2 CLR
04:32 47.4 °F 45.8 °F 29.92 in Calm     94 % 0.00 in 0.0 W/m2 CLR
04:37 47.5 °F 45.9 °F 29.92 in North 1.7 mph 3.5 mph 94 % 0.00 in 0.0 W/m2 CLR
04:42 47.6 °F 46.0 °F 29.92 in Calm     94 % 0.00 in 0.0 W/m2 CLR
04:47 47.8 °F 46.2 °F 29.92 in Calm     94 % 0.00 in 0.0 W/m2 CLR
04:52 47.9 °F 46.3 °F 29.92 in North 0.9 mph 4.0 mph 94 % 0.00 in 0.0 W/m2 CLR
04:57 47.9 °F 46.3 °F 29.92 in NNE 2.5 mph 3.5 mph 94 % 0.00 in 0.0 W/m2 CLR
05:02 47.9 °F 46.3 °F 29.92 in NNE 1.2 mph 3.0 mph 94 % 0.00 in 0.0 W/m2 CLR
05:07 48.0 °F 46.4 °F 29.92 in Calm     94 % 0.00 in 0.0 W/m2 CLR
05:12 47.9 °F 46.3 °F 29.92 in NNE 0.4 mph 2.3 mph 94 % 0.00 in 0.0 W/m2 CLR
05:17 47.9 °F 46.3 °F 29.92 in Calm     94 % 0.00 in 0.0 W/m2 CLR
05:22 47.9 °F 46.3 °F 29.92 in NNE 0.9 mph 2.3 mph 94 % 0.00 in 0.0 W/m2 CLR
05:27 48.0 °F 46.4 °F 29.92 in NNE 1.8 mph 3.5 mph 94 % 0.00 in 0.0 W/m2 CLR
05:32 48.0 °F 46.4 °F 29.92 in Calm     94 % 0.00 in 0.0 W/m2 CLR
05:37 47.9 °F 46.3 °F 29.92 in NNE 2.1 mph 3.5 mph 94 % 0.00 in 0.0 W/m2 CLR
05:42 47.9 °F 46.3 °F 29.92 in Calm     94 % 0.00 in 0.0 W/m2 CLR
05:47 47.9 °F 46.3 °F 29.92 in Calm     94 % 0.00 in 0.0 W/m2 CLR
05:52 47.9 °F 46.3 °F 29.92 in NNE 1.5 mph 3.5 mph 94 % 0.00 in 0.0 W/m2 CLR
05:57 47.9 °F 46.3 °F 29.91 in NNE 1.7 mph 3.5 mph 94 % 0.00 in 0.0 W/m2 CLR
06:02 47.9 °F 46.3 °F 29.92 in NNE 1.9 mph 2.3 mph 94 % 0.00 in 0.0 W/m2 CLR
06:07 47.9 °F 46.3 °F 29.92 in NNE 3.2 mph 4.0 mph 94 % 0.00 in 0.0 W/m2 CLR
06:12 47.9 °F 46.3 °F 29.92 in NNE 2.5 mph 3.5 mph 94 % 0.00 in 0.0 W/m2 CLR
06:17 47.9 °F 46.3 °F 29.92 in NNE 3.8 mph 4.6 mph 94 % 0.00 in 0.0 W/m2 CLR
06:22 47.9 °F 46.3 °F 29.92 in Calm     94 % 0.00 in 0.0 W/m2 CLR
06:27 47.8 °F 46.2 °F 29.92 in Calm   1.2 mph 94 % 0.00 in 0.0 W/m2 CLR
06:32 47.9 °F 46.3 °F 29.92 in NNE 2.9 mph 4.6 mph 94 % 0.00 in 0.0 W/m2 CLR
06:37 47.8 °F 46.2 °F 29.92 in NNE 3.5 mph 4.6 mph 94 % 0.00 in 0.0 W/m2 CLR
06:42 47.8 °F 46.2 °F 29.92 in NNE 4.3 mph 5.8 mph 94 % 0.00 in 0.0 W/m2 CLR
06:47 47.7 °F 46.1 °F 29.92 in NNE 0.1 mph 3.5 mph 94 % 0.00 in 0.0 W/m2 CLR
06:52 47.6 °F 46.0 °F 29.92 in Calm     94 % 0.00 in 0.0 W/m2 CLR
06:57 47.6 °F 46.2 °F 29.93 in NNE 2.2 mph 3.5 mph 95 % 0.00 in 0.0 W/m2 CLR
07:02 47.6 °F 46.2 °F 29.93 in Calm   2.3 mph 95 % 0.00 in 0.0 W/m2 CLR
07:07 47.6 °F 46.2 °F 29.92 in NNE 3.5 mph 4.6 mph 95 % 0.00 in 11.0 W/m2 CLR
07:12 47.5 °F 46.1 °F 29.92 in Calm     95 % 0.00 in 16.0 W/m2 CLR
07:17 47.6 °F 46.2 °F 29.92 in NNE 1.0 mph 3.5 mph 95 % 0.00 in 21.0 W/m2 CLR
07:22 47.6 °F 46.2 °F 29.92 in NNE 1.4 mph 3.0 mph 95 % 0.00 in 26.0 W/m2 CLR
07:27 47.7 °F 46.3 °F 29.92 in Calm     95 % 0.00 in 23.0 W/m2 CLR
07:32 47.7 °F 46.3 °F 29.93 in Calm     95 % 0.00 in 25.0 W/m2 CLR
07:37 47.9 °F 46.5 °F 29.93 in Calm     95 % 0.00 in 30.0 W/m2 BKN
07:42 47.9 °F 46.5 °F 29.93 in NNE 0.1 mph 1.2 mph 95 % 0.00 in 37.0 W/m2 SCT
07:47 48.0 °F 46.6 °F 29.93 in Calm     95 % 0.00 in 33.0 W/m2 BKN
07:52 48.1 °F 46.7 °F 29.93 in Calm     95 % 0.00 in 28.0 W/m2 BKN
07:57 48.1 °F 46.7 °F 29.93 in NNE 0.8 mph 4.0 mph 95 % 0.00 in 37.0 W/m2 BKN
08:02 48.2 °F 46.8 °F 29.92 in NNE 3.8 mph 4.6 mph 95 % 0.00 in 46.0 W/m2 BKN
08:07 48.2 °F 46.8 °F 29.92 in NNE 2.2 mph 3.5 mph 95 % 0.00 in 44.0 W/m2 BKN
08:12 48.2 °F 46.8 °F 29.91 in NE 4.9 mph 9.2 mph 95 % 0.00 in 44.0 W/m2 BKN
08:17 48.2 °F 46.8 °F 29.92 in Calm   2.3 mph 95 % 0.00 in 44.0 W/m2 BKN
08:22 48.2 °F 46.8 °F 29.91 in NE 4.8 mph 8.1 mph 95 % 0.00 in 46.0 W/m2 OVC
08:27 48.2 °F 46.8 °F 29.91 in NNE 2.1 mph 3.5 mph 95 % 0.00 in 42.0 W/m2 OVC
08:32 48.3 °F 46.9 °F 29.91 in Calm     95 % 0.00 in 53.0 W/m2 OVC
08:37 48.2 °F 46.8 °F 29.91 in NE 0.2 mph 2.3 mph 95 % 0.00 in 47.0 W/m2 OVC
08:42 48.3 °F 46.9 °F 29.91 in NE 5.0 mph 6.0 mph 95 % 0.00 in 54.0 W/m2 OVC
08:47 48.3 °F 46.9 °F 29.91 in ENE 2.6 mph 5.8 mph 95 % 0.00 in 44.0 W/m2 OVC
08:52 48.2 °F 46.8 °F 29.92 in ENE 0.3 mph 3.5 mph 95 % 0.00 in 39.0 W/m2 OVC
08:57 48.3 °F 46.9 °F 29.92 in NE 1.0 mph 3.5 mph 95 % 0.00 in 47.0 W/m2 OVC
09:02 48.2 °F 46.8 °F 29.93 in Calm   1.0 mph 95 % 0.00 in 28.0 W/m2 OVC
09:07 48.2 °F 46.8 °F 29.95 in SE 1.8 mph 8.1 mph 95 % 0.00 in 18.0 W/m2 OVC
09:12 48.0 °F 46.6 °F 29.94 in Calm   3.5 mph 95 % 0.00 in 26.0 W/m2 OVC
09:17 47.9 °F 46.5 °F 29.93 in ESE 1.1 mph 3.5 mph 95 % 0.01 in 33.0 W/m2 RA
09:22 47.8 °F 46.4 °F 29.92 in East 1.3 mph 3.5 mph 95 % 0.01 in 49.0 W/m2 RA
09:27 47.7 °F 46.3 °F 29.93 in Calm   1.2 mph 95 % 0.01 in 62.0 W/m2 OVC
09:32 47.7 °F 46.3 °F 29.92 in Calm     95 % 0.01 in 56.0 W/m2 OVC
09:37 47.7 °F 46.3 °F 29.92 in NE 1.7 mph 3.5 mph 95 % 0.01 in 54.0 W/m2 OVC
09:42 47.7 °F 46.3 °F 29.92 in NE 0.1 mph 3.5 mph 95 % 0.01 in 65.0 W/m2 OVC
09:47 47.7 °F 46.3 °F 29.91 in NE 0.1 mph 2.0 mph 95 % 0.01 in 76.0 W/m2 OVC
09:52 47.8 °F 46.4 °F 29.91 in ENE 2.2 mph 3.5 mph 95 % 0.01 in 107.0 W/m2 OVC
09:57 48.0 °F 46.6 °F 29.91 in NE 4.2 mph 4.6 mph 95 % 0.01 in 156.0 W/m2 BKN
10:02 48.1 °F 46.7 °F 29.91 in NE 2.1 mph 4.0 mph 95 % 0.01 in 104.0 W/m2 OVC
10:07 47.9 °F 46.5 °F 29.91 in NE 3.1 mph 4.6 mph 95 % 0.01 in 86.0 W/m2 OVC
10:12 47.7 °F 46.3 °F 29.91 in NE 4.8 mph 7.0 mph 95 % 0.01 in 105.0 W/m2 OVC
10:17 47.8 °F 46.4 °F 29.91 in NNE 6.1 mph 9.2 mph 95 % 0.01 in 102.0 W/m2 RA
10:22 47.7 °F 46.3 °F 29.90 in NE 4.4 mph 6.9 mph 95 % 0.01 in 107.0 W/m2 RA
10:28 47.7 °F 46.3 °F 29.91 in NNE 4.7 mph 6.9 mph 95 % 0.01 in 109.0 W/m2 OVC
10:33 47.7 °F 46.3 °F 29.91 in ENE 2.2 mph 5.8 mph 95 % 0.01 in 141.0 W/m2 OVC
10:38 47.9 °F 46.5 °F 29.91 in NE 3.3 mph 3.5 mph 95 % 0.01 in 125.0 W/m2 OVC
10:43 47.8 °F 46.4 °F 29.91 in NE 4.7 mph 6.0 mph 95 % 0.01 in 127.0 W/m2 OVC
10:48 47.7 °F 46.3 °F 29.91 in NNE 0.8 mph 5.0 mph 95 % 0.01 in 81.0 W/m2 OVC
10:53 47.7 °F 46.3 °F 29.91 in NNE 5.7 mph 8.0 mph 95 % 0.01 in 91.0 W/m2 OVC
10:58 47.8 °F 46.4 °F 29.92 in NNE 0.7 mph 3.5 mph 95 % 0.01 in 95.0 W/m2 OVC
11:03 47.7 °F 46.3 °F 29.92 in NNE 0.3 mph 3.5 mph 95 % 0.01 in 100.0 W/m2 OVC
11:08 47.8 °F 46.4 °F 29.92 in NNE 0.3 mph 2.3 mph 95 % 0.01 in 90.0 W/m2 OVC
11:13 47.8 °F 46.4 °F 29.92 in Calm   1.2 mph 95 % 0.01 in 70.0 W/m2 OVC
11:18 47.8 °F 46.4 °F 29.92 in North 0.5 mph 2.3 mph 95 % 0.00 in 53.0 W/m2 OVC
11:23 47.8 °F 46.4 °F 29.93 in NNE 2.3 mph 3.5 mph 95 % 0.00 in 49.0 W/m2 OVC
11:28 47.7 °F 46.3 °F 29.93 in Calm     95 % 0.00 in 37.0 W/m2 OVC
11:33 47.6 °F 46.2 °F 29.93 in Calm     95 % 0.00 in 40.0 W/m2 OVC
11:38 47.6 °F 46.2 °F 29.94 in NE 2.0 mph 3.5 mph 95 % 0.00 in 33.0 W/m2 OVC
11:43 47.6 °F 46.2 °F 29.94 in Calm     95 % 0.00 in 25.0 W/m2 OVC
11:48 47.7 °F 46.3 °F 29.95 in Calm     95 % 0.00 in 16.0 W/m2 OVC
11:53 47.8 °F 46.4 °F 29.96 in SSW 3.3 mph 5.0 mph 95 % 0.00 in 5.0 W/m2 OVC
11:58 47.8 °F 46.4 °F 29.96 in South 0.4 mph 2.3 mph 95 % 0.03 in 11.0 W/m2 RA
12:03 47.7 °F 46.3 °F 29.94 in Calm     95 % 0.20 in 26.0 W/m2 RA
12:08 47.7 °F 46.3 °F 29.93 in NE 2.5 mph 3.5 mph 95 % 0.28 in 26.0 W/m2 RA
12:13 47.8 °F 46.4 °F 29.92 in NE 0.9 mph 3.5 mph 95 % 0.31 in 26.0 W/m2 RA
12:18 47.8 °F 46.4 °F 29.91 in NE 1.1 mph 3.5 mph 95 % 0.34 in 26.0 W/m2 RA
12:23 47.7 °F 46.3 °F 29.91 in NNE 0.7 mph 3.5 mph 95 % 0.35 in 25.0 W/m2 RA
12:28 47.7 °F 46.3 °F 29.91 in Calm     95 % 0.36 in 25.0 W/m2 RA
12:33 47.7 °F 46.3 °F 29.91 in Calm     95 % 0.38 in 23.0 W/m2 RA
12:38 47.8 °F 46.4 °F 29.90 in Calm     95 % 0.41 in 28.0 W/m2 RA
12:43 47.8 °F 46.4 °F 29.89 in NE 4.3 mph 5.8 mph 95 % 0.43 in 33.0 W/m2 RA
12:48 47.8 °F 46.4 °F 29.89 in NNE 3.4 mph 4.0 mph 95 % 0.46 in 37.0 W/m2 RA
12:53 47.8 °F 46.4 °F 29.88 in NE 4.3 mph 5.8 mph 95 % 0.48 in 40.0 W/m2 RA
12:58 47.8 °F 46.4 °F 29.88 in NNE 4.3 mph 9.2 mph 95 % 0.47 in 44.0 W/m2 RA
13:03 47.8 °F 46.4 °F 29.88 in NNE 3.8 mph 5.8 mph 95 % 0.32 in 46.0 W/m2 RA
13:08 47.9 °F 46.8 °F 29.87 in NNE 4.1 mph 5.0 mph 96 % 0.26 in 47.0 W/m2 RA
13:13 47.9 °F 46.8 °F 29.87 in NE 3.6 mph 5.8 mph 96 % 0.24 in 56.0 W/m2 RA
13:18 47.9 °F 46.8 °F 29.87 in NE 0.5 mph 3.5 mph 96 % 0.23 in 67.0 W/m2 RA
13:23 48.1 °F 47.0 °F 29.87 in NE 4.5 mph 9.2 mph 96 % 0.23 in 69.0 W/m2 RA
13:28 48.1 °F 47.0 °F 29.87 in NE 2.4 mph 5.8 mph 96 % 0.22 in 88.0 W/m2 RA
13:33 48.2 °F 47.1 °F 29.87 in Calm   3.5 mph 96 % 0.20 in 100.0 W/m2 OVC
13:38 48.4 °F 47.3 °F 29.87 in Calm   1.0 mph 96 % 0.18 in 90.0 W/m2 RA
13:43 48.3 °F 47.2 °F 29.86 in NNE 1.3 mph 3.5 mph 96 % 0.16 in 121.0 W/m2 RA
13:48 48.4 °F 47.3 °F 29.86 in NE 4.8 mph 6.9 mph 96 % 0.13 in 134.0 W/m2 OVC
13:53 48.4 °F 47.3 °F 29.86 in NE 2.6 mph 4.6 mph 96 % 0.10 in 113.0 W/m2 OVC
13:58 48.4 °F 47.3 °F 29.86 in NE 2.6 mph 4.6 mph 96 % 0.08 in 102.0 W/m2 OVC
14:03 48.5 °F 47.4 °F 29.86 in NE 1.0 mph 4.0 mph 96 % 0.06 in 114.0 W/m2 OVC
14:08 48.6 °F 47.5 °F 29.86 in NE 2.6 mph 5.8 mph 96 % 0.04 in 144.0 W/m2 OVC
14:13 48.9 °F 47.8 °F 29.86 in NNE 0.5 mph 1.2 mph 96 % 0.03 in 144.0 W/m2 OVC
14:18 48.9 °F 47.8 °F 29.86 in NNE 3.3 mph 8.1 mph 96 % 0.02 in 148.0 W/m2 OVC
14:24 49.1 °F 48.0 °F 29.86 in NNE 2.5 mph 3.5 mph 96 % 0.01 in 151.0 W/m2 OVC
14:29 49.0 °F 47.6 °F 29.86 in Calm   4.6 mph 95 % 0.01 in 118.0 W/m2 OVC
14:34 49.0 °F 47.6 °F 29.86 in NNE 1.2 mph 4.0 mph 95 % 0.01 in 111.0 W/m2 OVC
14:39 49.0 °F 47.6 °F 29.86 in NNE 0.1 mph 3.5 mph 95 % 0.00 in 88.0 W/m2 OVC
14:44 49.0 °F 47.6 °F 29.86 in NNE 3.6 mph 6.0 mph 95 % 0.00 in 67.0 W/m2 OVC
14:49 48.8 °F 47.4 °F 29.86 in NE 3.4 mph 8.1 mph 95 % 0.00 in 63.0 W/m2 OVC
14:54 48.7 °F 47.3 °F 29.87 in NNE 1.9 mph 4.6 mph 95 % 0.00 in 72.0 W/m2 OVC
14:59 48.7 °F 47.6 °F 29.87 in NE 0.1 mph 5.8 mph 96 % 0.00 in 56.0 W/m2 OVC
15:04 48.6 °F 47.5 °F 29.88 in Calm     96 % 0.00 in 37.0 W/m2 OVC
15:09 48.6 °F 47.2 °F 29.88 in Calm     95 % 0.00 in 35.0 W/m2 OVC
15:14 48.6 °F 47.2 °F 29.88 in Calm     95 % 0.00 in 35.0 W/m2 OVC
15:19 48.5 °F 47.1 °F 29.88 in Calm     95 % 0.00 in 32.0 W/m2 OVC
15:24 48.6 °F 47.2 °F 29.88 in Calm     95 % 0.00 in 37.0 W/m2 OVC
15:29 48.6 °F 47.2 °F 29.87 in NE 0.2 mph 3.5 mph 95 % 0.00 in 44.0 W/m2 OVC
15:34 48.5 °F 47.1 °F 29.87 in NNE 1.4 mph 2.3 mph 95 % 0.00 in 44.0 W/m2 OVC
15:40 48.6 °F 47.2 °F 29.88 in Calm   1.2 mph 95 % 0.00 in 46.0 W/m2 OVC
15:45 48.7 °F 47.3 °F 29.87 in NNE 2.7 mph 3.5 mph 95 % 0.00 in 44.0 W/m2 OVC
15:50 48.7 °F 47.3 °F 29.87 in NNE 2.7 mph 3.5 mph 95 % 0.00 in 49.0 W/m2 OVC
15:55 48.7 °F 47.3 °F 29.87 in NNE 1.0 mph 5.0 mph 95 % 0.00 in 35.0 W/m2 OVC
16:00 48.7 °F 47.3 °F 29.87 in NNE 0.9 mph 3.5 mph 95 % 0.00 in 32.0 W/m2 OVC
16:05 48.7 °F 47.3 °F 29.87 in NNE 1.0 mph 3.0 mph 95 % 0.00 in 33.0 W/m2 OVC
16:10 48.8 °F 47.4 °F 29.87 in Calm     95 % 0.00 in 30.0 W/m2 OVC
16:15 48.8 °F 47.4 °F 29.88 in Calm     95 % 0.01 in 26.0 W/m2 RA
16:20 49.0 °F 47.6 °F 29.87 in Calm     95 % 0.00 in 28.0 W/m2 RA
16:25 49.0 °F 47.6 °F 29.87 in Calm     95 % 0.00 in 33.0 W/m2 OVC
16:30 49.0 °F 47.6 °F 29.87 in Calm     95 % 0.01 in 37.0 W/m2 OVC
16:35 49.0 °F 47.6 °F 29.87 in Calm     95 % 0.01 in 37.0 W/m2 OVC
16:40 49.0 °F 47.6 °F 29.87 in Calm   1.2 mph 95 % 0.01 in 35.0 W/m2 OVC
16:45 49.1 °F 47.7 °F 29.87 in Calm     95 % 0.01 in 33.0 W/m2 OVC
16:50 49.1 °F 47.7 °F 29.87 in Calm     95 % 0.01 in 35.0 W/m2 OVC
16:55 49.1 °F 47.7 °F 29.87 in Calm     95 % 0.01 in 39.0 W/m2 OVC
17:00 49.1 °F 47.7 °F 29.87 in NNE 0.3 mph   95 % 0.01 in 44.0 W/m2 OVC
17:05 49.1 °F 47.7 °F 29.87 in Calm     95 % 0.01 in 53.0 W/m2 OVC
17:10 49.2 °F 47.8 °F 29.87 in Calm     95 % 0.01 in 51.0 W/m2 OVC
17:15 49.2 °F 47.8 °F 29.87 in Calm     95 % 0.00 in 47.0 W/m2 OVC
17:20 49.2 °F 47.8 °F 29.87 in Calm     95 % 0.01 in 39.0 W/m2 RA
17:25 49.3 °F 48.2 °F 29.87 in Calm     96 % 0.01 in 32.0 W/m2 RA
17:30 49.3 °F 47.9 °F 29.88 in Calm     95 % 0.01 in 30.0 W/m2 OVC
17:35 49.4 °F 48.3 °F 29.88 in NNE 1.0 mph 3.5 mph 96 % 0.01 in 32.0 W/m2 OVC
17:40 49.3 °F 47.9 °F 29.88 in Calm     95 % 0.02 in 39.0 W/m2 RA
17:45 49.4 °F 48.3 °F 29.88 in Calm     96 % 0.02 in 32.0 W/m2 RA
17:50 49.4 °F 48.0 °F 29.88 in Calm     95 % 0.02 in 28.0 W/m2 OVC
17:55 49.4 °F 48.0 °F 29.88 in Calm     95 % 0.03 in 26.0 W/m2 RA
18:00 49.4 °F 48.0 °F 29.88 in Calm     95 % 0.03 in 26.0 W/m2 RA
18:05 49.4 °F 48.0 °F 29.89 in Calm     95 % 0.04 in 21.0 W/m2 RA
18:10 49.5 °F 48.1 °F 29.89 in Calm     95 % 0.04 in 16.0 W/m2 RA
18:15 49.4 °F 48.0 °F 29.89 in Calm     95 % 0.04 in 16.0 W/m2
18:20 49.4 °F 48.0 °F 29.89 in Calm     95 % 0.03 in 18.0 W/m2 OVC
18:25 49.4 °F 48.0 °F 29.89 in NNE 1.7 mph 3.5 mph 95 % 0.04 in 25.0 W/m2 RA
18:30 49.3 °F 48.2 °F 29.89 in Calm     96 % 0.04 in 25.0 W/m2 RA
18:35 49.3 °F 48.2 °F 29.90 in Calm     96 % 0.04 in 19.0 W/m2
18:40 49.3 °F 48.2 °F 29.90 in Calm     96 % 0.03 in 12.0 W/m2 OVC
18:45 49.3 °F 48.2 °F 29.90 in Calm     96 % 0.03 in 11.0 W/m2 OVC
18:50 49.3 °F 48.2 °F 29.90 in Calm     96 % 0.03 in 7.0 W/m2 OVC
18:55 49.4 °F 48.3 °F 29.91 in Calm     96 % 0.03 in 9.0 W/m2 RA
19:00 49.5 °F 48.4 °F 29.91 in Calm     96 % 0.03 in 9.0 W/m2 RA
19:05 49.4 °F 48.3 °F 29.91 in Calm     96 % 0.02 in 7.0 W/m2
19:10 49.3 °F 48.2 °F 29.91 in Calm     96 % 0.02 in 5.0 W/m2 OVC
19:15 49.2 °F 48.1 °F 29.91 in Calm     96 % 0.02 in 0.0 W/m2 OVC
19:20 49.2 °F 48.1 °F 29.91 in Calm     96 % 0.02 in 0.0 W/m2
19:25 49.2 °F 48.1 °F 29.91 in Calm     96 % 0.01 in 0.0 W/m2
19:30 49.2 °F 48.1 °F 29.92 in Calm     96 % 0.01 in 0.0 W/m2
19:35 49.3 °F 48.2 °F 29.91 in Calm     96 % 0.01 in 0.0 W/m2
19:40 49.1 °F 48.0 °F 29.92 in Calm     96 % 0.01 in 0.0 W/m2
19:45 49.2 °F 48.1 °F 29.92 in Calm     96 % 0.01 in 0.0 W/m2
19:50 49.0 °F 47.6 °F 29.92 in Calm     95 % 0.01 in 0.0 W/m2
19:55 49.0 °F 47.6 °F 29.92 in Calm     95 % 0.00 in 0.0 W/m2 CLR
20:00 48.9 °F 47.8 °F 29.92 in Calm     96 % 0.00 in 0.0 W/m2 CLR
20:05 48.9 °F 47.8 °F 29.92 in Calm     96 % 0.00 in 0.0 W/m2 CLR
20:10 48.9 °F 47.8 °F 29.92 in Calm     96 % 0.01 in 0.0 W/m2 RA
20:15 48.9 °F 47.8 °F 29.92 in Calm     96 % 0.01 in 0.0 W/m2 RA
20:21 49.0 °F 47.9 °F 29.92 in Calm     96 % 0.01 in 0.0 W/m2
20:26 48.9 °F 47.8 °F 29.92 in Calm     96 % 0.01 in 0.0 W/m2
20:31 48.9 °F 47.8 °F 29.92 in Calm     96 % 0.01 in 0.0 W/m2
20:36 48.8 °F 47.7 °F 29.93 in Calm     96 % 0.01 in 0.0 W/m2
20:41 48.7 °F 47.6 °F 29.93 in Calm     96 % 0.01 in 0.0 W/m2
20:46 48.7 °F 47.6 °F 29.93 in Calm     96 % 0.01 in 0.0 W/m2
20:51 48.6 °F 47.5 °F 29.93 in Calm     96 % 0.01 in 0.0 W/m2
20:56 48.6 °F 47.5 °F 29.94 in Calm     96 % 0.01 in 0.0 W/m2
21:01 48.6 °F 47.5 °F 29.94 in Calm     96 % 0.01 in 0.0 W/m2
21:06 48.5 °F 47.4 °F 29.93 in Calm     96 % 0.01 in 0.0 W/m2
21:11 48.4 °F 47.3 °F 29.94 in Calm     96 % 0.00 in 0.0 W/m2 CLR
21:16 48.4 °F 47.3 °F 29.94 in Calm     96 % 0.00 in 0.0 W/m2 CLR
21:21 48.4 °F 47.3 °F 29.95 in Calm     96 % 0.00 in 0.0 W/m2 CLR
21:26 48.5 °F 47.4 °F 29.95 in Calm     96 % 0.00 in 0.0 W/m2 CLR
21:31 48.4 °F 47.3 °F 29.95 in Calm     96 % 0.00 in 0.0 W/m2 CLR
21:36 48.5 °F 47.4 °F 29.95 in Calm     96 % 0.00 in 0.0 W/m2 CLR
21:41 48.3 °F 47.2 °F 29.95 in Calm     96 % 0.00 in 0.0 W/m2 CLR
21:46 48.4 °F 47.3 °F 29.95 in Calm     96 % 0.00 in 0.0 W/m2 CLR
21:51 48.4 °F 47.3 °F 29.95 in Calm     96 % 0.00 in 0.0 W/m2 CLR
21:56 48.5 °F 47.4 °F 29.96 in Calm     96 % 0.00 in 0.0 W/m2 CLR
22:01 48.5 °F 47.4 °F 29.95 in Calm     96 % 0.00 in 0.0 W/m2 CLR
22:06 48.4 °F 47.3 °F 29.95 in Calm     96 % 0.00 in 0.0 W/m2 CLR
22:11 48.4 °F 47.3 °F 29.96 in Calm     96 % 0.00 in 0.0 W/m2 CLR
22:16 48.4 °F 47.3 °F 29.95 in Calm     96 % 0.00 in 0.0 W/m2 CLR
22:21 48.3 °F 47.2 °F 29.95 in Calm     96 % 0.00 in 0.0 W/m2 CLR
22:26 48.3 °F 47.2 °F 29.95 in Calm     96 % 0.00 in 0.0 W/m2 CLR
22:31 48.3 °F 47.2 °F 29.95 in Calm     96 % 0.00 in 0.0 W/m2 CLR
22:36 48.3 °F 47.2 °F 29.95 in Calm     96 % 0.00 in 0.0 W/m2 CLR
22:41 48.3 °F 47.2 °F 29.96 in Calm     96 % 0.00 in 0.0 W/m2 CLR
22:46 48.3 °F 47.2 °F 29.96 in Calm     96 % 0.00 in 0.0 W/m2 CLR
22:51 48.3 °F 47.2 °F 29.96 in Calm     96 % 0.00 in 0.0 W/m2 CLR
22:56 48.3 °F 47.2 °F 29.96 in Calm     96 % 0.00 in 0.0 W/m2 CLR
23:01 48.2 °F 47.1 °F 29.96 in Calm     96 % 0.00 in 0.0 W/m2 CLR
23:06 48.2 °F 47.1 °F 29.96 in Calm     96 % 0.00 in 0.0 W/m2 CLR
23:12 48.0 °F 46.9 °F 29.96 in Calm     96 % 0.00 in 0.0 W/m2 CLR
23:17 47.9 °F 46.8 °F 29.96 in Calm     96 % 0.00 in 0.0 W/m2 CLR
23:22 47.7 °F 46.6 °F 29.96 in Calm     96 % 0.00 in 0.0 W/m2 CLR
23:27 47.8 °F 46.7 °F 29.96 in Calm     96 % 0.00 in 0.0 W/m2 CLR
23:32 48.0 °F 46.9 °F 29.96 in Calm     96 % 0.00 in 0.0 W/m2 CLR
23:37 48.1 °F 47.0 °F 29.97 in Calm     96 % 0.00 in 0.0 W/m2 CLR
23:42 47.9 °F 46.8 °F 29.97 in Calm     96 % 0.00 in 0.0 W/m2 CLR
23:47 47.7 °F 46.6 °F 29.97 in Calm     96 % 0.00 in 0.0 W/m2 CLR
23:52 47.6 °F 46.5 °F 29.97 in Calm     96 % 0.00 in 0.0 W/m2 CLR
23:57 47.7 °F 46.6 °F 29.97 in Calm     96 % 0.00 in 0.0 W/m2 CLR
Air Products Campus Weather
Compliments of Weather Underground - 3.5 mb